Airfield :







YOU CAN JOIN US ON...

 
LOGIN :

Register | Disclaimer

   EN    FR    IT 

 









Legend :    VFR   Marginal VFR   IFR   Intensive IFR   Very Intensive IFR
Visi :
Ceiling :
>= 8 km
>= 3000ft
5 to 8 km
1000 to 3000 ft
1500m to 5 km
500 to 1000 ft
800 to 1500m
200 to 500 ft
< 800m
< 200 ft
Symbols :   Thunderstorms  Fog  Heavy snow  Heavy precipitations  Wind > 20 kt






- Airport Elevation : 166 ft
- IATA code : YCX


CYCX - Gagetown Heliport

CURRENT METAR :
  • 242300Z 20004KT 15SM FEW040 BKN100 22/17 A3019 RMK SC1AC7 DENSITY ALT 966FT SLP221

EXPIRED METARs :
  • 242200Z CCB 20005KT 170V230 15SM FEW042 BKN085 OVC110 23/17 A3019 RMK SC2AC3AC3 DENSITY ALT 1078FT DIST VIRGA E CVCTV CLD EMBD SLP222
  • 242100Z CCA 21003KT 180V250 15SM -SHRA SCT031 BKN110 24/18 A3019 RMK CU3AC4 DENSITY ALT 1163FT SLP222
  • 242042Z CCA 20003KT 15SM -SHRA FEW028 SCT034 BKN110 BKN230 24/17 A3019 RMK CF1CU2AC3CI1 DENSITY ALT 1190FT SLP224
  • 242000Z 32002KT 15SM FEW028 SCT032 BKN140 BKN230 24/18 A3020 RMK CF1CU3AC2CI1 OBS TAKEN +3 DENSITY ALT 1219FT SLP225
  • 241900Z 32003KT 290V030 15SM -SHRA FEW026 SCT045 BKN160 BKN230 23/18 A3021 RMK CF1CU3AC2CI1 DENSITY ALT 1116FT SLP228

TAF TAF CYCX
Valid from the 24 at 21:00 until the 25 at 09:00 UTC


242040Z 2421/2509 VRB03KT P6SM FEW015 SCT025 BKN140
TEMPO 2421/2423 P6SM -SHRA BKN020
FM250000 18005KT P6SM SCT015 BKN030
TEMPO 2503/2509 4SM BR BKN012 BKN025 RMK NXT FCST BY 250300Z
CZQM FIR / North America



MET'MAP, your aeronautical weather chart ! - Copyright ORBIFLY December 2007 - Disclaimer

ORBIFLY MET'MAP TEAM :

Programming & Development : Alexandra Zaïnal
Original concept : Baudouin d'Aumeries
Technical & hardware support : Manuel Goepfert
Assistance : Marc-Olivier Méhu




SOURCES & CREDITS :

   NOAA